Time;durP1;ratioP1;P1;durP2;ratioP2;P2;SDS_P1;SDS_P2;PMS_P1;PMS_P2;Temp;Humidity;BMP_temperature;BMP_pressure;BME280_temperature;BME280_humidity;BME280_pressure;Samples;Min_cycle;Max_cycle;Signal;HPM_P1;HPM_P2
2022/06/02 00:02:29;;;;;;;0.43;0.43;;;14.20;99.90;;;;;;5035308;28;20093;-76
2022/06/02 00:05:13;;;;;;;0.30;0.30;;;14.20;99.90;;;;;;5053042;28;20067;-77
2022/06/02 00:08:16;;;;;;;0.15;0.15;;;14.10;99.90;;;;;;5052697;28;20036;-77
2022/06/02 00:11:07;;;;;;;0.20;0.20;;;14.20;99.90;;;;;;5052507;28;20029;-76
2022/06/02 00:13:44;;;;;;;0.17;0.17;;;14.30;99.90;;;;;;5052129;28;20480;-76
2022/06/02 00:16:25;;;;;;;0.17;0.17;;;14.40;99.90;;;;;;5051937;28;20025;-76
2022/06/02 00:18:59;;;;;;;0.20;0.20;;;14.40;99.90;;;;;;5034482;28;20541;-76
2022/06/02 00:21:46;;;;;;;0.20;0.20;;;14.40;99.90;;;;;;5035252;28;20104;-74
2022/06/02 00:24:37;;;;;;;0.50;0.50;;;14.40;99.90;;;;;;5052066;28;20427;-74
2022/06/02 00:27:17;;;;;;;0.10;0.10;;;14.40;99.90;;;;;;5051595;28;20083;-74
2022/06/02 00:30:03;;;;;;;0.10;0.10;;;14.40;99.90;;;;;;5054120;28;20025;-74
2022/06/02 00:32:37;;;;;;;0.63;0.60;;;14.40;99.90;;;;;;5055504;28;20056;-74
2022/06/02 00:35:36;;;;;;;0.40;0.40;;;14.20;99.90;;;;;;5037645;28;20102;-74
2022/06/02 00:38:06;;;;;;;0.60;0.60;;;14.30;99.90;;;;;;5050115;28;20053;-74
2022/06/02 00:40:34;;;;;;;0.28;0.28;;;14.20;99.90;;;;;;5055335;28;20025;-74
2022/06/02 00:43:25;;;;;;;1.20;0.68;;;14.10;99.90;;;;;;5055309;28;20389;-74
2022/06/02 00:46:14;;;;;;;1.08;0.52;;;14.00;99.90;;;;;;5055981;28;20024;-74
2022/06/02 00:49:09;;;;;;;0.65;0.40;;;14.00;99.90;;;;;;5055669;28;20032;-74
2022/06/02 00:51:40;;;;;;;0.15;0.15;;;14.10;99.90;;;;;;5056105;28;20082;-74
2022/06/02 00:57:31;;;;;;;0.10;0.10;;;14.10;99.90;;;;;;5037555;28;20550;-74
2022/06/02 01:00:09;;;;;;;0.45;0.40;;;14.00;99.90;;;;;;5054978;28;20064;-74
2022/06/02 01:02:52;;;;;;;0.63;0.63;;;13.90;99.90;;;;;;5037095;28;20044;-73
2022/06/02 01:06:05;;;;;;;0.57;0.57;;;13.80;99.90;;;;;;5054996;28;20055;-74
2022/06/02 01:08:51;;;;;;;0.70;0.70;;;13.60;99.90;;;;;;5047899;28;20488;-74
2022/06/02 01:11:28;;;;;;;1.73;0.50;;;13.60;99.90;;;;;;5054800;28;20112;-74
2022/06/02 01:14:03;;;;;;;0.32;0.30;;;13.60;99.90;;;;;;5036775;28;20040;-74
2022/06/02 01:17:06;;;;;;;0.52;0.52;;;13.70;99.90;;;;;;5054690;28;20100;-74
2022/06/02 01:19:38;;;;;;;0.30;0.30;;;13.80;99.90;;;;;;5036594;28;20029;-74
2022/06/02 01:22:12;;;;;;;1.65;1.00;;;13.80;99.90;;;;;;5054634;28;20025;-74
2022/06/02 01:25:15;;;;;;;0.20;0.20;;;13.80;99.90;;;;;;5036682;28;20056;-74
2022/06/02 01:28:14;;;;;;;1.05;0.82;;;14.00;99.90;;;;;;5054379;28;20100;-74
2022/06/02 01:30:56;;;;;;;0.20;0.20;;;13.80;99.90;;;;;;5019995;28;20393;-74
2022/06/02 01:34:02;;;;;;;1.10;0.90;;;13.80;99.90;;;;;;5054473;28;20078;-74
2022/06/02 01:36:49;;;;;;;0.28;0.28;;;13.70;99.90;;;;;;5050214;28;20037;-74
2022/06/02 01:39:41;;;;;;;0.32;0.32;;;13.70;99.90;;;;;;5054193;28;20021;-74
2022/06/02 01:42:26;;;;;;;0.40;0.30;;;13.80;99.90;;;;;;5053969;28;20067;-74
2022/06/02 01:45:13;;;;;;;0.43;0.10;;;13.80;99.90;;;;;;5054257;28;20036;-74
2022/06/02 01:47:42;;;;;;;0.00;0.00;;;13.80;99.90;;;;;;5036369;28;20496;-74
2022/06/02 01:50:26;;;;;;;0.10;0.10;;;13.80;99.90;;;;;;5036353;28;20021;-74
2022/06/02 01:53:01;;;;;;;0.00;0.00;;;14.00;99.90;;;;;;5054205;28;20025;-74
2022/06/02 01:55:58;;;;;;;0.20;0.20;;;14.10;99.90;;;;;;5036031;28;20036;-74
2022/06/02 01:58:45;;;;;;;0.10;0.10;;;14.20;99.90;;;;;;5054149;28;20111;-73
2022/06/02 02:01:58;;;;;;;0.10;0.10;;;14.30;99.90;;;;;;5053897;28;20566;-74
2022/06/02 02:04:45;;;;;;;0.10;0.10;;;14.30;99.90;;;;;;5053850;28;20534;-74
2022/06/02 02:07:26;;;;;;;0.10;0.10;;;14.20;99.90;;;;;;5053777;28;20080;-74
2022/06/02 02:10:29;;;;;;;0.10;0.10;;;14.20;99.90;;;;;;5035846;28;20021;-74
2022/06/02 02:13:18;;;;;;;0.10;0.10;;;14.40;99.90;;;;;;5035829;28;20033;-74
2022/06/02 02:16:05;;;;;;;0.20;0.20;;;14.60;99.90;;;;;;5019166;28;20047;-74
2022/06/02 02:19:15;;;;;;;0.10;0.10;;;14.40;99.90;;;;;;5053509;28;20025;-74
2022/06/02 02:22:12;;;;;;;0.10;0.10;;;14.40;99.90;;;;;;4972332;28;20038;-74
2022/06/02 02:24:59;;;;;;;0.50;0.50;;;14.50;99.90;;;;;;5035613;28;20033;-74
2022/06/02 02:28:02;;;;;;;0.10;0.10;;;14.10;99.90;;;;;;5053342;28;20031;-74
2022/06/02 02:30:43;;;;;;;0.13;0.13;;;13.90;99.90;;;;;;5053322;28;20025;-74
2022/06/02 02:33:34;;;;;;;0.45;0.45;;;13.90;99.90;;;;;;5053180;28;20502;-74
2022/06/02 02:36:08;;;;;;;0.00;0.00;;;13.90;99.90;;;;;;5053028;28;20025;-74
2022/06/02 02:39:02;;;;;;;0.20;0.20;;;14.00;99.90;;;;;;5053065;28;20033;-74
2022/06/02 02:41:44;;;;;;;0.10;0.10;;;14.10;99.90;;;;;;5035278;28;20021;-74
2022/06/02 02:44:23;;;;;;;0.10;0.10;;;14.20;99.90;;;;;;5053082;28;20110;-74
2022/06/02 02:47:08;;;;;;;0.10;0.10;;;14.20;99.90;;;;;;5052992;28;20035;-74
2022/06/02 02:49:37;;;;;;;0.10;0.10;;;14.10;99.90;;;;;;5053005;28;20063;-74
2022/06/02 02:52:06;;;;;;;0.13;0.13;;;14.10;99.90;;;;;;5052642;28;20025;-74
2022/06/02 02:54:46;;;;;;;0.20;0.20;;;14.10;99.90;;;;;;5035103;28;20021;-74
2022/06/02 02:57:32;;;;;;;0.63;0.63;;;14.10;99.90;;;;;;5034918;28;20036;-74
2022/06/02 03:00:28;;;;;;;0.10;0.10;;;14.00;99.90;;;;;;5052693;28;20392;-74
2022/06/02 03:03:16;;;;;;;0.47;0.38;;;13.90;99.90;;;;;;5052722;28;20032;-74
2022/06/02 03:05:59;;;;;;;0.10;0.10;;;14.00;99.90;;;;;;5052686;28;20069;-74
2022/06/02 03:08:51;;;;;;;0.10;0.10;;;14.20;99.90;;;;;;5052651;28;20043;-74
2022/06/02 03:11:31;;;;;;;0.10;0.10;;;14.30;99.90;;;;;;5053174;28;20024;-75
2022/06/02 03:14:27;;;;;;;0.10;0.10;;;14.30;99.90;;;;;;5035632;28;20108;-74
2022/06/02 03:17:10;;;;;;;0.10;0.10;;;14.40;99.90;;;;;;5052267;28;20388;-75
2022/06/02 03:19:50;;;;;;;0.10;0.10;;;14.50;99.90;;;;;;5052488;28;20435;-74
2022/06/02 03:22:35;;;;;;;0.17;0.17;;;14.60;99.90;;;;;;5034479;28;20112;-74
2022/06/02 03:25:31;;;;;;;0.15;0.15;;;14.60;99.90;;;;;;5034414;28;20124;-74
2022/06/02 03:28:28;;;;;;;0.10;0.10;;;14.60;99.90;;;;;;5051937;28;20025;-74
2022/06/02 03:31:35;;;;;;;0.10;0.10;;;14.70;99.90;;;;;;5052257;28;20025;-73
2022/06/02 03:34:13;;;;;;;0.10;0.10;;;14.70;99.90;;;;;;5041217;28;20075;-73
2022/06/02 03:36:45;;;;;;;0.10;0.10;;;14.70;99.90;;;;;;5034786;28;20654;-72
2022/06/02 03:39:29;;;;;;;0.10;0.10;;;14.60;99.90;;;;;;5034660;28;20036;-72
2022/06/02 03:42:00;;;;;;;0.10;0.10;;;14.60;99.90;;;;;;5034950;28;20052;-72
2022/06/02 03:44:41;;;;;;;0.10;0.10;;;14.70;99.90;;;;;;5034626;28;20480;-72
2022/06/02 03:47:31;;;;;;;0.10;0.10;;;14.90;99.90;;;;;;5034275;28;20029;-73
2022/06/02 03:50:44;;;;;;;0.10;0.10;;;15.00;99.90;;;;;;5034138;28;20480;-73
2022/06/02 03:53:15;;;;;;;0.10;0.10;;;15.00;99.90;;;;;;4970893;28;20102;-72
2022/06/02 03:56:11;;;;;;;0.10;0.10;;;14.90;99.90;;;;;;5044875;28;20083;-75
2022/06/02 03:58:59;;;;;;;25.52;11.18;;;14.90;99.90;;;;;;5051696;28;20388;-74
2022/06/02 04:01:28;;;;;;;0.10;0.10;;;14.80;99.90;;;;;;5033975;28;20049;-75
2022/06/02 04:03:54;;;;;;;0.10;0.10;;;14.90;99.90;;;;;;5035760;28;20043;-74
2022/06/02 04:06:20;;;;;;;0.10;0.10;;;15.00;99.90;;;;;;5021496;28;20033;-74
2022/06/02 04:09:30;;;;;;;0.10;0.10;;;15.00;99.90;;;;;;5038103;28;20017;-74
2022/06/02 04:15:17;;;;;;;0.00;0.00;;;15.10;99.90;;;;;;5055956;28;20025;-75
2022/06/02 04:18:03;;;;;;;0.10;0.10;;;15.20;99.90;;;;;;5055668;28;20431;-74
2022/06/02 04:21:19;;;;;;;0.10;0.10;;;15.30;99.90;;;;;;5055283;28;20036;-75
2022/06/02 04:24:06;;;;;;;0.10;0.10;;;15.20;99.90;;;;;;4974240;28;20023;-75
2022/06/02 04:26:32;;;;;;;0.10;0.10;;;15.00;99.90;;;;;;4974421;28;20122;-75
2022/06/02 04:29:16;;;;;;;0.45;0.43;;;15.00;99.90;;;;;;5018975;28;20101;-75
2022/06/02 04:31:59;;;;;;;0.10;0.10;;;15.00;99.90;;;;;;5037644;28;20468;-74
2022/06/02 04:34:45;;;;;;;0.10;0.10;;;14.90;99.90;;;;;;5055423;28;20032;-74
2022/06/02 04:37:36;;;;;;;0.10;0.10;;;14.90;99.90;;;;;;5037409;28;20017;-72
2022/06/02 04:40:26;;;;;;;0.00;0.00;;;14.80;99.90;;;;;;5037794;28;20021;-74
2022/06/02 04:43:10;;;;;;;0.10;0.10;;;14.70;99.90;;;;;;5055929;28;20024;-73
2022/06/02 04:46:08;;;;;;;0.10;0.10;;;14.70;99.90;;;;;;5038084;28;20021;-73
2022/06/02 04:48:52;;;;;;;0.10;0.10;;;14.80;99.90;;;;;;5055711;28;20032;-74
2022/06/02 04:51:39;;;;;;;0.10;0.10;;;14.90;99.90;;;;;;5038029;28;20052;-73
2022/06/02 04:54:12;;;;;;;0.22;0.10;;;15.00;99.90;;;;;;5021072;28;20032;-73
2022/06/02 04:56:46;;;;;;;0.10;0.10;;;14.80;99.90;;;;;;5020963;28;20093;-73
2022/06/02 04:59:43;;;;;;;0.10;0.10;;;14.70;99.90;;;;;;5036894;28;20032;-73
2022/06/02 05:02:17;;;;;;;0.10;0.10;;;14.80;99.90;;;;;;5054932;28;20386;-72
2022/06/02 05:05:30;;;;;;;0.05;0.05;;;14.80;99.90;;;;;;5054861;28;20113;-73
2022/06/02 05:08:17;;;;;;;0.10;0.10;;;14.80;99.90;;;;;;4983029;28;20039;-73
2022/06/02 05:11:14;;;;;;;0.05;0.05;;;14.70;99.90;;;;;;5014546;28;20029;-73
2022/06/02 05:14:11;;;;;;;0.00;0.00;;;15.00;99.90;;;;;;4984232;28;20043;-73
2022/06/02 05:16:55;;;;;;;0.10;0.10;;;15.20;99.90;;;;;;5037117;28;20025;-73
2022/06/02 05:19:35;;;;;;;0.10;0.10;;;15.20;99.90;;;;;;5008853;28;20212;-73
2022/06/02 05:22:26;;;;;;;0.00;0.00;;;15.20;99.90;;;;;;5020381;28;20025;-73
2022/06/02 05:25:17;;;;;;;0.10;0.10;;;15.40;99.90;;;;;;5054963;28;20025;-73
2022/06/02 05:28:08;;;;;;;0.10;0.10;;;15.50;99.90;;;;;;5036747;28;20028;-73
2022/06/02 05:31:03;;;;;;;0.10;0.10;;;15.30;99.90;;;;;;5036411;28;20159;-73
2022/06/02 05:33:58;;;;;;;0.10;0.10;;;15.20;99.90;;;;;;4984198;28;20089;-73
2022/06/02 05:36:32;;;;;;;0.10;0.10;;;15.20;99.90;;;;;;5017584;28;20084;-73
2022/06/02 05:39:18;;;;;;;0.10;0.10;;;15.30;99.90;;;;;;5019835;28;20439;-73
2022/06/02 05:42:05;;;;;;;0.10;0.10;;;15.50;99.90;;;;;;5037038;28;20083;-74
2022/06/02 05:44:46;;;;;;;0.10;0.10;;;15.50;99.90;;;;;;5035670;28;20017;-74
2022/06/02 05:47:43;;;;;;;0.00;0.00;;;15.70;99.90;;;;;;5045348;28;20028;-74
2022/06/02 05:50:21;;;;;;;0.10;0.10;;;15.90;99.90;;;;;;5050421;28;20014;-74
2022/06/02 05:53:13;;;;;;;0.10;0.10;;;16.10;99.90;;;;;;5022294;28;20032;-74
2022/06/02 05:55:46;;;;;;;;;;;15.90;99.90;;;;;;5036798;28;20052;-74
2022/06/02 05:58:18;;;;;;;0.08;0.08;;;15.80;99.90;;;;;;5067290;28;19991;-74
2022/06/02 06:01:18;;;;;;;0.10;0.10;;;15.90;99.90;;;;;;5074856;22;20048;-76
2022/06/02 06:04:16;;;;;;;0.20;0.20;;;16.00;99.90;;;;;;4990934;28;20024;-76
2022/06/02 06:06:46;;;;;;;0.00;0.00;;;16.10;99.90;;;;;;5066217;28;20016;-76
2022/06/02 06:09:51;;;;;;;0.10;0.10;;;16.20;99.90;;;;;;5054561;28;20518;-76
2022/06/02 06:12:36;;;;;;;0.10;0.10;;;16.30;99.90;;;;;;5034546;28;20040;-76
2022/06/02 06:15:08;;;;;;;0.10;0.10;;;16.50;99.90;;;;;;5052630;28;20040;-76
2022/06/02 06:17:59;;;;;;;0.13;0.13;;;16.60;99.90;;;;;;5035138;28;20028;-76
2022/06/02 06:20:47;;;;;;;0.08;0.08;;;16.40;99.90;;;;;;5038388;28;20112;-76
2022/06/02 06:23:24;;;;;;;0.10;0.10;;;16.30;99.90;;;;;;5046769;28;20025;-74
2022/06/02 06:26:01;;;;;;;0.10;0.10;;;16.30;99.90;;;;;;5040948;28;20029;-74
2022/06/02 06:28:34;;;;;;;0.10;0.10;;;16.30;99.90;;;;;;5019521;28;20439;-74
2022/06/02 06:31:34;;;;;;;0.10;0.10;;;16.50;99.90;;;;;;5052304;28;20028;-76
2022/06/02 06:34:21;;;;;;;0.10;0.10;;;16.90;99.90;;;;;;5052352;28;20408;-74
2022/06/02 06:37:07;;;;;;;0.10;0.10;;;16.90;99.90;;;;;;5053050;28;21021;-74
2022/06/02 06:40:09;;;;;;;0.47;0.47;;;16.90;99.90;;;;;;5061351;28;20107;-73
2022/06/02 06:43:00;;;;;;;0.75;0.50;;;17.30;99.90;;;;;;5038234;28;20021;-74
2022/06/02 06:45:33;;;;;;;0.10;0.10;;;17.20;99.90;;;;;;5053079;28;20025;-74
2022/06/02 06:48:06;;;;;;;0.10;0.10;;;17.30;99.90;;;;;;5034457;28;20276;-74
2022/06/02 06:50:48;;;;;;;0.10;0.10;;;17.50;99.90;;;;;;5051642;28;20099;-74
2022/06/02 06:53:20;;;;;;;0.10;0.10;;;17.60;99.90;;;;;;5061789;28;20430;-74
2022/06/02 06:56:21;;;;;;;0.08;0.08;;;17.80;99.90;;;;;;5051276;28;20025;-73
2022/06/02 06:59:23;;;;;;;0.10;0.10;;;17.90;99.90;;;;;;5014594;28;20078;-73
2022/06/02 07:01:51;;;;;;;;;;;17.90;99.90;;;;;;5030016;28;20028;-74
2022/06/02 07:04:25;;;;;;;0.10;0.10;;;18.10;99.90;;;;;;5048418;28;19913;-74
2022/06/02 07:07:02;;;;;;;0.20;0.20;;;18.40;99.90;;;;;;5046754;28;20033;-73
2022/06/02 07:09:57;;;;;;;0.10;0.10;;;18.40;99.90;;;;;;5012594;28;20492;-73
2022/06/02 07:12:56;;;;;;;0.00;0.00;;;18.60;99.90;;;;;;5047437;28;20021;-73
2022/06/02 07:15:37;;;;;;;0.10;0.10;;;18.80;99.90;;;;;;5032425;28;20059;-73
2022/06/02 07:18:21;;;;;;;0.10;0.10;;;19.00;99.90;;;;;;5033787;28;20021;-74
2022/06/02 07:21:07;;;;;;;1.65;0.88;;;19.00;99.90;;;;;;5032627;28;20137;-73
2022/06/02 07:24:04;;;;;;;0.10;0.10;;;19.00;99.90;;;;;;5029256;28;20029;-74
2022/06/02 07:26:38;;;;;;;0.10;0.10;;;19.00;99.90;;;;;;5030180;28;20025;-73
2022/06/02 07:29:30;;;;;;;0.10;0.10;;;19.30;99.90;;;;;;5038565;28;20108;-74
2022/06/02 07:32:26;;;;;;;0.10;0.10;;;19.40;99.90;;;;;;5029375;28;20496;-74
2022/06/02 07:35:20;;;;;;;0.10;0.10;;;19.50;99.90;;;;;;5030411;28;20037;-74
2022/06/02 07:38:23;;;;;;;0.10;0.10;;;19.60;99.30;;;;;;5039572;28;20029;-74
2022/06/02 07:40:48;;;;;;;0.10;0.10;;;19.60;98.40;;;;;;5040922;28;20032;-74
2022/06/02 07:43:30;;;;;;;0.00;0.00;;;19.40;98.90;;;;;;5029641;28;20392;-73
2022/06/02 07:46:26;;;;;;;0.22;0.22;;;19.20;99.40;;;;;;5028654;28;20037;-74
2022/06/02 07:49:35;;;;;;;0.10;0.10;;;19.20;98.90;;;;;;5029870;28;20087;-73
2022/06/02 07:52:13;;;;;;;0.75;0.52;;;19.60;97.70;;;;;;5008209;28;20037;-74
2022/06/02 07:55:02;;;;;;;0.10;0.10;;;19.70;97.80;;;;;;5025623;28;20393;-74
2022/06/02 07:58:06;;;;;;;0.20;0.20;;;19.90;97.00;;;;;;5038890;28;20071;-74
2022/06/02 08:00:43;;;;;;;0.10;0.10;;;20.00;96.10;;;;;;5039227;28;20107;-74
2022/06/02 08:03:14;;;;;;;0.00;0.00;;;20.20;96.90;;;;;;5039280;28;20025;-74
2022/06/02 08:05:55;;;;;;;0.10;0.10;;;20.50;95.30;;;;;;5039197;28;20040;-74
2022/06/02 08:08:54;;;;;;;0.10;0.10;;;20.50;93.30;;;;;;5028642;28;20108;-74
2022/06/02 08:11:55;;;;;;;0.10;0.10;;;20.50;93.60;;;;;;5028502;28;20032;-75
2022/06/02 08:14:36;;;;;;;0.03;0.03;;;20.50;93.30;;;;;;5008808;28;20037;-75
2022/06/02 08:17:20;;;;;;;0.10;0.10;;;20.60;91.50;;;;;;5038653;28;20033;-75
2022/06/02 08:20:05;;;;;;;0.28;0.28;;;20.90;92.80;;;;;;5029313;28;20037;-74
2022/06/02 08:22:52;;;;;;;0.10;0.10;;;21.00;92.30;;;;;;5029659;28;20063;-73
2022/06/02 08:25:22;;;;;;;0.35;0.35;;;21.20;91.70;;;;;;5039797;28;20066;-73
2022/06/02 08:27:59;;;;;;;0.10;0.10;;;21.40;92.20;;;;;;5038741;28;20028;-74
2022/06/02 08:31:13;;;;;;;0.63;0.57;;;21.60;91.00;;;;;;5029359;28;20107;-74
2022/06/02 08:34:08;;;;;;;0.13;0.13;;;21.70;90.00;;;;;;4981954;28;20039;-74
2022/06/02 08:36:48;;;;;;;0.08;0.08;;;21.60;90.50;;;;;;5024706;28;20025;-74
2022/06/02 08:39:42;;;;;;;0.03;0.03;;;21.60;89.50;;;;;;5037964;28;20074;-74
2022/06/02 08:42:42;;;;;;;0.10;0.10;;;21.60;89.80;;;;;;5038850;28;20370;-75
2022/06/02 08:45:31;;;;;;;0.00;0.00;;;21.90;87.50;;;;;;5038893;28;20029;-72
2022/06/02 08:48:16;;;;;;;0.05;0.05;;;21.80;88.30;;;;;;5039167;28;20041;-72
2022/06/02 08:50:51;;;;;;;0.10;0.10;;;22.20;87.60;;;;;;5041657;28;20025;-73
2022/06/02 08:54:04;;;;;;;0.10;0.10;;;22.40;85.70;;;;;;5032532;28;20077;-73
2022/06/02 08:57:10;;;;;;;0.10;0.10;;;22.20;83.70;;;;;;4994066;28;20507;-73
2022/06/02 09:00:09;;;;;;;0.20;0.20;;;22.20;84.60;;;;;;4995739;28;20076;-73
2022/06/02 09:03:09;;;;;;;0.65;0.65;;;22.60;80.40;;;;;;5042190;28;20585;-71
2022/06/02 09:06:23;;;;;;;0.00;0.00;;;22.70;79.60;;;;;;5017012;28;20029;-73
2022/06/02 09:08:55;;;;;;;0.00;0.00;;;22.20;80.40;;;;;;5042011;28;20036;-75
2022/06/02 09:11:29;;;;;;;0.00;0.00;;;21.30;78.60;;;;;;5033488;28;20526;-74
2022/06/02 09:14:13;;;;;;;0.00;0.00;;;21.30;77.90;;;;;;5032774;28;20036;-74
2022/06/02 09:17:07;;;;;;;0.20;0.20;;;21.40;79.10;;;;;;5041863;28;20036;-75
2022/06/02 09:19:56;;;;;;;0.05;0.05;;;21.20;79.30;;;;;;5041913;28;20083;-73
2022/06/02 09:22:38;;;;;;;0.10;0.10;;;21.00;76.90;;;;;;5043873;28;20457;-75
2022/06/02 09:25:17;;;;;;;0.10;0.10;;;21.30;77.50;;;;;;5042336;28;20140;-73
2022/06/02 09:28:19;;;;;;;0.10;0.10;;;21.40;74.70;;;;;;5041875;28;20051;-74
2022/06/02 09:30:59;;;;;;;0.00;0.00;;;22.00;73.20;;;;;;5034947;28;20410;-74
2022/06/02 09:34:07;;;;;;;0.03;0.03;;;22.40;73.70;;;;;;5041897;28;20444;-74
2022/06/02 09:36:52;;;;;;;0.10;0.10;;;23.20;74.40;;;;;;5041745;28;20090;-73
2022/06/02 09:39:35;;;;;;;0.00;0.00;;;23.40;73.40;;;;;;5032025;28;20033;-74
2022/06/02 09:42:40;;;;;;;0.47;0.47;;;24.00;71.90;;;;;;5032578;28;20461;-74
2022/06/02 09:45:15;;;;;;;0.10;0.10;;;24.20;69.10;;;;;;5041595;28;20125;-73
2022/06/02 09:48:15;;;;;;;0.20;0.20;;;24.20;69.50;;;;;;5042171;28;20053;-74
2022/06/02 09:50:47;;;;;;;0.05;0.05;;;23.70;71.90;;;;;;5042070;28;20377;-74
2022/06/02 09:53:31;;;;;;;0.00;0.00;;;24.00;69.80;;;;;;5032041;28;20029;-74
2022/06/02 09:56:24;;;;;;;0.10;0.10;;;24.20;66.50;;;;;;5041640;28;20106;-74
2022/06/02 09:58:59;;;;;;;0.32;0.32;;;24.20;68.30;;;;;;5031731;28;20551;-74
2022/06/02 10:01:40;;;;;;;4.03;2.78;;;24.60;67.80;;;;;;5032198;28;20096;-75
2022/06/02 10:04:43;;;;;;;0.00;0.00;;;24.30;63.90;;;;;;5041401;28;20028;-75
2022/06/02 10:07:21;;;;;;;0.00;0.00;;;24.60;67.50;;;;;;5040570;28;20024;-74
2022/06/02 10:09:59;;;;;;;0.00;0.00;;;25.00;65.80;;;;;;5040655;28;20040;-75
2022/06/02 10:12:58;;;;;;;0.10;0.10;;;25.30;63.80;;;;;;5040946;28;20040;-73
2022/06/02 10:15:47;;;;;;;0.10;0.10;;;25.20;64.50;;;;;;5038711;28;20068;-74
2022/06/02 10:18:28;;;;;;;0.00;0.00;;;25.30;64.70;;;;;;5012115;28;20124;-74
2022/06/02 10:21:06;;;;;;;0.00;0.00;;;25.20;64.40;;;;;;5038017;28;20021;-74
2022/06/02 10:23:41;;;;;;;0.20;0.20;;;25.70;63.40;;;;;;5029518;28;20037;-76
2022/06/02 10:26:37;;;;;;;0.40;0.40;;;25.50;63.30;;;;;;5039480;28;20451;-74
2022/06/02 10:29:24;;;;;;;0.00;0.00;;;25.20;62.80;;;;;;5014066;28;20440;-74
2022/06/02 10:32:28;;;;;;;0.00;0.00;;;25.50;64.10;;;;;;5040001;28;20037;-74
2022/06/02 10:35:21;;;;;;;0.00;0.00;;;25.70;61.80;;;;;;5039936;28;20029;-74
2022/06/02 10:37:55;;;;;;;0.63;0.63;;;25.80;63.40;;;;;;5039883;28;20033;-74
2022/06/02 10:40:38;;;;;;;0.15;0.10;;;25.90;62.00;;;;;;5039705;28;20500;-74
2022/06/02 10:43:22;;;;;;;0.10;0.10;;;25.80;62.40;;;;;;5029113;28;20032;-74
2022/06/02 10:46:21;;;;;;;0.20;0.20;;;25.90;61.80;;;;;;5039662;28;20025;-74
2022/06/02 10:48:58;;;;;;;0.10;0.10;;;25.80;61.00;;;;;;5012850;28;20071;-74
2022/06/02 10:52:01;;;;;;;0.00;0.00;;;25.20;62.40;;;;;;5038897;28;20025;-74
2022/06/02 10:54:49;;;;;;;0.10;0.10;;;25.60;64.30;;;;;;5039181;28;20078;-74
2022/06/02 10:57:21;;;;;;;0.00;0.00;;;26.20;61.70;;;;;;5040826;28;20025;-74
2022/06/02 11:00:05;;;;;;;;;;;26.80;61.00;;;;;;5030508;28;20036;-74
2022/06/02 11:02:46;;;;;;;0.55;0.55;;;27.00;60.60;;;;;;5040340;28;19919;-75
2022/06/02 11:05:53;;;;;;;0.10;0.10;;;27.00;59.10;;;;;;5039425;28;20955;-74
2022/06/02 11:08:20;;;;;;;0.05;0.05;;;27.20;58.30;;;;;;5039213;28;20041;-74
2022/06/02 11:11:03;;;;;;;0.00;0.00;;;27.30;58.80;;;;;;5038719;28;20602;-74
2022/06/02 11:13:49;;;;;;;0.00;0.00;;;27.30;57.00;;;;;;5039045;28;20029;-74
2022/06/02 11:16:41;;;;;;;0.30;0.30;;;27.40;55.00;;;;;;5039330;28;20037;-74
2022/06/02 11:19:41;;;;;;;0.50;0.20;;;27.70;55.80;;;;;;5038864;28;20033;-75
2022/06/02 11:22:25;;;;;;;0.00;0.00;;;27.50;55.40;;;;;;5041431;28;20067;-75
2022/06/02 11:25:15;;;;;;;0.00;0.00;;;27.10;56.90;;;;;;5040347;28;20055;-75
2022/06/02 11:27:59;;;;;;;0.10;0.10;;;27.50;56.00;;;;;;5029626;28;20115;-75
2022/06/02 11:30:31;;;;;;;0.10;0.10;;;27.40;57.50;;;;;;5040046;28;20037;-73
2022/06/02 11:33:22;;;;;;;0.75;0.65;;;27.40;55.70;;;;;;5032282;28;20678;-75
2022/06/02 11:36:06;;;;;;;0.28;0.10;;;27.20;57.60;;;;;;5039009;28;20048;-75
2022/06/02 11:39:05;;;;;;;0.10;0.10;;;26.90;57.60;;;;;;5041051;28;20044;-75
2022/06/02 11:41:37;;;;;;;0.22;0.15;;;26.20;60.00;;;;;;5029794;28;20035;-75
2022/06/02 11:44:08;;;;;;;;;;;25.80;57.80;;;;;;5029409;28;20059;-75
2022/06/02 11:46:46;;;;;;;;;;;25.60;58.80;;;;;;5030489;28;19913;-75
2022/06/02 11:49:36;;;;;;;0.10;0.10;;;25.70;59.70;;;;;;5047963;28;20158;-75
2022/06/02 11:52:20;;;;;;;0.00;0.00;;;25.80;59.00;;;;;;5031482;28;20426;-75
2022/06/02 11:54:49;;;;;;;0.20;0.20;;;26.20;57.50;;;;;;5012296;28;20435;-75
2022/06/02 11:57:17;;;;;;;0.10;0.10;;;25.60;57.40;;;;;;5039847;28;20147;-75
2022/06/02 11:59:58;;;;;;;0.05;0.05;;;25.30;59.10;;;;;;5041286;28;20036;-75
2022/06/02 12:02:44;;;;;;;0.37;0.37;;;25.50;59.40;;;;;;5029233;28;20033;-76
2022/06/02 12:05:55;;;;;;;0.08;0.08;;;25.30;60.20;;;;;;5027634;28;20374;-74
2022/06/02 12:08:38;;;;;;;0.00;0.00;;;25.00;61.70;;;;;;5028959;28;20484;-74
2022/06/02 12:11:27;;;;;;;0.00;0.00;;;24.70;62.20;;;;;;5029894;28;20065;-74
2022/06/02 12:14:18;;;;;;;0.08;0.08;;;24.90;61.20;;;;;;5030520;28;20025;-74
2022/06/02 12:16:48;;;;;;;0.20;0.20;;;25.00;60.50;;;;;;5038896;28;20071;-74
2022/06/02 12:19:17;;;;;;;0.25;0.25;;;24.70;61.50;;;;;;5038717;28;20419;-74
2022/06/02 12:22:11;;;;;;;0.00;0.00;;;24.70;63.00;;;;;;5038941;28;20036;-74
2022/06/02 12:25:25;;;;;;;0.00;0.00;;;24.50;64.70;;;;;;5029898;28;20922;-74
2022/06/02 12:28:20;;;;;;;0.00;0.00;;;24.40;63.20;;;;;;4942460;29;20039;-74
2022/06/02 12:30:54;;;;;;;1.08;0.73;;;24.40;63.50;;;;;;4942590;28;20440;-75
2022/06/02 12:33:31;;;;;;;0.00;0.00;;;24.30;63.60;;;;;;5015312;28;20420;-72
2022/06/02 12:36:10;;;;;;;0.32;0.32;;;24.40;64.10;;;;;;5042905;28;20039;-73
2022/06/02 12:39:00;;;;;;;0.08;0.08;;;24.30;64.40;;;;;;5016149;28;20041;-73
2022/06/02 12:41:34;;;;;;;0.25;0.25;;;24.30;64.00;;;;;;5042527;28;20444;-75
2022/06/02 12:44:38;;;;;;;0.00;0.00;;;24.20;64.20;;;;;;5044022;28;20032;-73
2022/06/02 12:47:31;;;;;;;0.10;0.10;;;24.00;66.30;;;;;;5043111;28;20428;-73
2022/06/02 12:50:27;;;;;;;0.10;0.10;;;23.90;67.60;;;;;;5032261;28;20120;-73
2022/06/02 12:53:07;;;;;;;0.10;0.10;;;23.70;68.40;;;;;;5042888;28;20033;-73
2022/06/02 12:55:48;;;;;;;0.00;0.00;;;23.60;67.30;;;;;;5042482;28;20067;-73
2022/06/02 12:58:51;;;;;;;0.00;0.00;;;23.70;66.40;;;;;;5077271;22;20081;-95
2022/06/02 13:01:50;;;;;;;0.00;0.00;;;23.50;65.70;;;;;;5043110;28;20047;-95
2022/06/02 13:04:53;;;;;;;0.00;0.00;;;23.60;66.10;;;;;;5037922;28;20028;-94
2022/06/02 13:08:21;;;;;;;0.10;0.10;;;23.70;64.10;;;;;;5047685;28;20052;-94
2022/06/02 13:11:59;;;;;;;0.10;0.10;;;23.90;65.60;;;;;;5042872;28;20033;-96
2022/06/02 13:14:47;;;;;;;0.00;0.00;;;23.50;68.80;;;;;;5044117;28;20032;-94
2022/06/02 13:18:20;;;;;;;0.30;0.30;;;23.50;69.30;;;;;;5058115;28;20036;-95
2022/06/02 13:40:15;;;;;;;;;;;;;;;;;;;;;
2022/06/02 13:47:21;;;;;;;0.10;0.10;;;23.40;72.10;;;;;;5005495;28;20071;-94
2022/06/02 13:50:19;;;;;;;0.20;0.20;;;23.40;73.30;;;;;;5043805;28;20033;-93
2022/06/02 13:59:27;;;;;;;0.17;0.15;;;23.80;71.10;;;;;;5047296;22;20053;-75
2022/06/02 14:01:59;;;;;;;0.10;0.10;;;23.80;66.50;;;;;;5033006;28;20388;-75
2022/06/02 14:04:41;;;;;;;0.00;0.00;;;23.90;66.40;;;;;;5041731;28;20025;-75
2022/06/02 14:07:27;;;;;;;0.00;0.00;;;24.00;66.90;;;;;;5041437;28;20049;-75
2022/06/02 14:10:25;;;;;;;0.30;0.30;;;24.20;67.50;;;;;;5041112;28;20044;-75
2022/06/02 14:13:01;;;;;;;0.13;0.05;;;24.20;67.70;;;;;;5028491;28;20519;-75
2022/06/02 14:15:45;;;;;;;0.10;0.10;;;24.20;68.70;;;;;;5031054;28;20029;-75
2022/06/02 14:18:25;;;;;;;1.05;0.85;;;24.10;68.70;;;;;;5028731;28;20078;-75
2022/06/02 14:20:59;;;;;;;0.10;0.10;;;24.00;69.50;;;;;;5041660;28;20612;-75
2022/06/02 14:24:00;;;;;;;0.43;0.43;;;23.80;70.20;;;;;;5033085;28;20097;-75
2022/06/02 14:26:36;;;;;;;0.00;0.00;;;23.80;68.50;;;;;;5019184;28;20570;-75
2022/06/02 14:29:28;;;;;;;0.10;0.10;;;23.90;69.70;;;;;;5039380;28;20420;-75
2022/06/02 14:32:19;;;;;;;0.03;0.03;;;23.90;69.70;;;;;;5031159;28;20074;-75
2022/06/02 14:35:21;;;;;;;0.13;0.13;;;24.00;68.90;;;;;;5041570;28;20037;-75
2022/06/02 14:38:16;;;;;;;0.00;0.00;;;23.80;69.60;;;;;;5028501;28;20527;-75
2022/06/02 14:40:50;;;;;;;0.00;0.00;;;23.70;70.40;;;;;;5040794;28;20077;-75
2022/06/02 14:43:38;;;;;;;0.10;0.10;;;23.70;70.20;;;;;;5032671;28;20059;-75
2022/06/02 14:46:23;;;;;;;0.68;0.52;;;23.70;70.20;;;;;;5030205;28;20043;-75
2022/06/02 14:49:07;;;;;;;0.55;0.28;;;23.70;70.50;;;;;;5040261;28;20495;-75
2022/06/02 14:51:37;;;;;;;0.00;0.00;;;23.70;69.80;;;;;;5041074;28;20040;-75
2022/06/02 14:54:17;;;;;;;0.88;0.57;;;23.60;69.90;;;;;;5030562;28;20033;-75
2022/06/02 14:57:11;;;;;;;0.20;0.20;;;23.60;69.80;;;;;;5039685;28;20072;-75
2022/06/02 14:59:58;;;;;;;0.47;0.47;;;23.40;70.90;;;;;;5031424;28;20041;-75
2022/06/02 15:02:27;;;;;;;0.03;0.03;;;23.50;71.70;;;;;;5031302;28;20671;-75
2022/06/02 15:05:21;;;;;;;1.17;0.63;;;23.60;71.50;;;;;;5040459;28;20095;-75
2022/06/02 15:08:10;;;;;;;0.45;0.45;;;23.60;70.60;;;;;;5040066;28;20028;-75